^^
Saratoga-Weather Station Historical Data
Daily Summary for May 5, 2021 Units:  Metric    English   Both
Daily Weekly Monthly Yearly Custom
  High: Low: Average:
Temperature: 5.2 °C 1.2 °C 3.3 °C
Dew Point: 3.2 °C 0.6 °C 2.1 °C
Humidity: 96% 86% 92%
Wind Speed: 13km/h 0km/h 1.6km/h
Wind Gust: 17.7km/h - -
Wind- - SW
Pressure: 1008.8 hPa 1001.4 hPa -
Precipitation: 3.0 mm    
Historical Graphs
 
 
Tabular Data for May 5, 2021
Time Temperature Dew Point Pressure Wind Wind Speed Wind Gust Humidity Rainfall Rate (Hourly) solar
00:02 3.5 °C 1.9 °C 1002.7 hPa West 4.7 km/h 6.4 km/h 89% 0.0 mm 0 W/m2
00:07 3.5 °C 1.9 °C 1002.7 hPa WSW 3.2 km/h 11.3 km/h 89% 0.0 mm 0 W/m2
00:12 3.5 °C 1.9 °C 1002.7 hPa SW 7.9 km/h 16.1 km/h 89% 0.0 mm 0 W/m2
00:17 3.4 °C 1.8 °C 1002.7 hPa WNW 3.2 km/h 12.9 km/h 89% 0.0 mm 0 W/m2
00:22 3.4 °C 1.8 °C 1002.7 hPa West 3.2 km/h 16.1 km/h 89% 0.0 mm 0 W/m2
00:27 3.3 °C 1.7 °C 1002.7 hPa NW 4.7 km/h 8 km/h 89% 0.0 mm 0 W/m2
00:32 3.3 °C 1.7 °C 1002.7 hPa NW 3.2 km/h 8 km/h 89% 0.0 mm 0 W/m2
00:37 3.3 °C 1.7 °C 1003.0 hPa West 3.2 km/h 8 km/h 89% 0.0 mm 0 W/m2
00:42 3.3 °C 1.7 °C 1003.0 hPa Calm   1.6 km/h 89% 0.0 mm 0 W/m2
00:47 3.3 °C 1.8 °C 1003.0 hPa NW 9.7 km/h 9.7 km/h 90% 0.0 mm 0 W/m2
00:52 3.3 °C 1.8 °C 1003.0 hPa North 1.4 km/h 4.8 km/h 90% 0.0 mm 0 W/m2
00:57 3.3 °C 1.8 °C 1003.0 hPa NNW 3.2 km/h 4.8 km/h 90% 0.0 mm 0 W/m2
01:02 3.4 °C 1.9 °C 1003.0 hPa WNW 3.2 km/h 6.4 km/h 90% 0.0 mm 0 W/m2
01:07 3.4 °C 1.9 °C 1003.0 hPa Calm   6.4 km/h 90% 0.0 mm 0 W/m2
01:12 3.4 °C 1.9 °C 1002.7 hPa Calm   6.4 km/h 90% 0.0 mm 0 W/m2
01:17 3.5 °C 2 °C 1002.7 hPa WNW 3.2 km/h 17.7 km/h 90% 0.0 mm 0 W/m2
01:22 3.5 °C 2 °C 1002.7 hPa WNW 3.2 km/h 8 km/h 90% 0.0 mm 0 W/m2
01:27 3.6 °C 2.1 °C 1002.7 hPa SSW 4.7 km/h 11.3 km/h 90% 0.0 mm 0 W/m2
01:32 3.6 °C 2.1 °C 1002.7 hPa North 3.2 km/h 6.4 km/h 90% 0.0 mm 0 W/m2
01:37 3.7 °C 2.2 °C 1002.7 hPa NNW 3.2 km/h 6.4 km/h 90% 0.0 mm 0 W/m2
01:42 3.7 °C 2.2 °C 1002.7 hPa NNW 7.9 km/h 11.3 km/h 90% 0.0 mm 0 W/m2
01:47 3.8 °C 2.3 °C 1002.7 hPa WNW 6.4 km/h 12.9 km/h 90% 0.0 mm 0 W/m2
01:52 3.8 °C 2.3 °C 1002.7 hPa SE 1.4 km/h 6.4 km/h 90% 0.0 mm 0 W/m2
01:57 3.9 °C 2.4 °C 1002.7 hPa Calm   11.3 km/h 90% 0.0 mm 0 W/m2
02:02 3.9 °C 2.4 °C 1002.7 hPa West 1.4 km/h 4.8 km/h 90% 0.0 mm 0 W/m2
02:07 3.9 °C 2.3 °C 1002.7 hPa NE 1.4 km/h 1.6 km/h 89% 0.0 mm 0 W/m2
02:12 3.9 °C 2.3 °C 1002.7 hPa NW 6.4 km/h 9.7 km/h 89% 0.0 mm 0 W/m2
02:17 4 °C 2.4 °C 1002.7 hPa West 9.7 km/h 9.7 km/h 89% 0.0 mm 0 W/m2
02:22 4.1 °C 2.5 °C 1002.7 hPa NNW 3.2 km/h 4.8 km/h 89% 0.0 mm 0 W/m2
02:27 4.1 °C 2.5 °C 1002.7 hPa WNW 4.7 km/h 4.8 km/h 89% 0.0 mm 0 W/m2
02:32 4.1 °C 2.5 °C 1002.7 hPa WNW 3.2 km/h 8 km/h 89% 0.0 mm 0 W/m2
02:37 4.1 °C 2.5 °C 1002.7 hPa Calm   3.2 km/h 89% 0.0 mm 0 W/m2
02:42 4.1 °C 2.5 °C 1002.7 hPa SSW 3.2 km/h 3.2 km/h 89% 0.0 mm 0 W/m2
02:48 4.1 °C 2.5 °C 1002.7 hPa NW 1.4 km/h 3.2 km/h 89% 0.0 mm 0 W/m2
02:53 4.1 °C 2.5 °C 1002.7 hPa NW 1.4 km/h 6.4 km/h 89% 0.0 mm 0 W/m2
02:58 4.1 °C 2.5 °C 1002.7 hPa NW 1.4 km/h 3.2 km/h 89% 0.0 mm 0 W/m2
03:03 4.1 °C 2.5 °C 1002.7 hPa Calm   3.2 km/h 89% 0.0 mm 0 W/m2
03:08 4.1 °C 2.5 °C 1002.7 hPa West 9.7 km/h 9.7 km/h 89% 0.0 mm 0 W/m2
03:13 4.1 °C 2.5 °C 1002.4 hPa West 1.4 km/h 4.8 km/h 89% 0.0 mm 0 W/m2
03:18 4.1 °C 2.5 °C 1002.4 hPa Calm   6.4 km/h 89% 0.0 mm 0 W/m2
03:23 4.1 °C 2.6 °C 1002.4 hPa NW 3.2 km/h 6.4 km/h 90% 0.0 mm 0 W/m2
03:28 4.1 °C 2.6 °C 1002.4 hPa WNW 3.2 km/h 4.8 km/h 90% 0.0 mm 0 W/m2
03:33 4 °C 2.5 °C 1002.0 hPa West 1.4 km/h 4.8 km/h 90% 0.0 mm 0 W/m2
03:38 3.9 °C 2.4 °C 1002.0 hPa SW 7.9 km/h 11.3 km/h 90% 0.0 mm 0 W/m2
03:43 3.9 °C 2.4 °C 1002.0 hPa WNW 7.9 km/h 9.7 km/h 90% 0.0 mm 0 W/m2
03:48 3.9 °C 2.4 °C 1002.0 hPa WNW 4.7 km/h 8 km/h 90% 0.0 mm 0 W/m2
03:53 3.9 °C 2.4 °C 1002.0 hPa NW 3.2 km/h 9.7 km/h 90% 0.0 mm 0 W/m2
03:58 3.8 °C 2.3 °C 1002.0 hPa NW 13 km/h 12.9 km/h 90% 0.5 mm 0 W/m2
04:03 3.7 °C 2.2 °C 1002.0 hPa NW 1.4 km/h 3.2 km/h 90% 0.5 mm 0 W/m2
04:08 3.4 °C 2.1 °C 1001.7 hPa WNW 1.4 km/h 6.4 km/h 91% 0.8 mm 0 W/m2
04:13 3.3 °C 2 °C 1001.7 hPa Calm   3.2 km/h 91% 1.3 mm 0 W/m2
04:18 3.2 °C 1.9 °C 1001.7 hPa WNW 3.2 km/h 6.4 km/h 91% 1.3 mm 0 W/m2
04:23 3 °C 1.8 °C 1001.7 hPa Calm   6.4 km/h 92% 1.3 mm 0 W/m2
04:28 2.9 °C 1.7 °C 1001.7 hPa WNW 3.2 km/h 8 km/h 92% 1.3 mm 0 W/m2
04:33 2.9 °C 1.7 °C 1001.7 hPa NW 3.2 km/h 6.4 km/h 92% 1.3 mm 0 W/m2
04:38 2.9 °C 1.9 °C 1001.7 hPa WNW 3.2 km/h 4.8 km/h 93% 1.3 mm 0 W/m2
04:43 2.9 °C 1.9 °C 1001.7 hPa West 4.7 km/h 4.8 km/h 93% 1.3 mm 0 W/m2
04:48 2.9 °C 1.9 °C 1001.7 hPa WNW 1.4 km/h 3.2 km/h 93% 1.3 mm 0 W/m2
04:53 3 °C 2 °C 1001.7 hPa East 1.4 km/h 1.6 km/h 93% 1.3 mm 0 W/m2
04:58 3 °C 2 °C 1001.7 hPa Calm   4.8 km/h 93% 0.8 mm 0 W/m2
05:03 3.1 °C 2.1 °C 1001.7 hPa Calm   3.2 km/h 93% 0.8 mm 0 W/m2
05:08 3.1 °C 2.1 °C 1001.4 hPa Calm   6.4 km/h 93% 0.5 mm 0 W/m2
05:13 3.1 °C 2.2 °C 1001.7 hPa WSW 3.2 km/h 9.7 km/h 94% 0.2 mm 0 W/m2
05:18 3.2 °C 2.2 °C 1001.4 hPa Calm   1.6 km/h 93% 0.2 mm 0 W/m2
05:23 3.2 °C 2.2 °C 1001.4 hPa NW 4.7 km/h 4.8 km/h 93% 0.2 mm 0 W/m2
05:28 3.2 °C 2.2 °C 1001.4 hPa Calm   3.2 km/h 93% 0.2 mm 0 W/m2
05:33 3.2 °C 2.2 °C 1001.4 hPa Calm   4.8 km/h 93% 0.2 mm 0 W/m2
05:38 3.2 °C 2.2 °C 1001.4 hPa Calm     93% 0.2 mm 0 W/m2
05:43 3.2 °C 2.2 °C 1001.4 hPa NW 1.4 km/h 1.6 km/h 93% 0.2 mm 0 W/m2
05:48 3.2 °C 2.2 °C 1001.4 hPa West 3.2 km/h 4.8 km/h 93% 0.2 mm 0 W/m2
05:53 3.2 °C 2.3 °C 1001.4 hPa WNW 1.4 km/h 3.2 km/h 94% 0.2 mm 0 W/m2
05:58 3.2 °C 2.3 °C 1001.4 hPa West 1.4 km/h 11.3 km/h 94% 0.2 mm 0 W/m2
06:03 3.3 °C 2.4 °C 1001.4 hPa West 1.4 km/h 3.2 km/h 94% 0.0 mm 0 W/m2
06:08 3.3 °C 2.4 °C 1001.4 hPa Calm   8 km/h 94% 0.0 mm 0 W/m2
06:13 3.3 °C 2.3 °C 1001.4 hPa NE 4.7 km/h 4.8 km/h 93% 0.0 mm 0 W/m2
06:18 3.3 °C 2.3 °C 1001.4 hPa ENE 1.4 km/h 6.4 km/h 93% 0.0 mm 0 W/m2
06:23 3.3 °C 2.3 °C 1001.4 hPa Calm   3.2 km/h 93% 0.0 mm 0 W/m2
06:28 3.3 °C 2.3 °C 1001.4 hPa WNW 1.4 km/h 4.8 km/h 93% 0.0 mm 0 W/m2
06:33 3.4 °C 2.4 °C 1001.4 hPa NW 1.4 km/h 3.2 km/h 93% 0.0 mm 0 W/m2
06:38 3.4 °C 2.4 °C 1001.4 hPa Calm     93% 0.0 mm 0 W/m2
06:43 3.4 °C 2.4 °C 1001.4 hPa Calm   3.2 km/h 93% 0.0 mm 0 W/m2
06:48 3.4 °C 2.4 °C 1001.4 hPa Calm   4.8 km/h 93% 0.0 mm 0 W/m2
06:53 3.4 °C 2.4 °C 1001.7 hPa NW 4.7 km/h 6.4 km/h 93% 0.0 mm 0 W/m2
06:58 3.4 °C 2.4 °C 1001.7 hPa South 7.9 km/h 11.3 km/h 93% 0.0 mm 0 W/m2
07:03 3.4 °C 2.2 °C 1001.4 hPa WNW 1.4 km/h 4.8 km/h 92% 0.0 mm 0 W/m2
07:08 3.4 °C 2.2 °C 1001.4 hPa NW 11.3 km/h 11.3 km/h 92% 0.0 mm 0 W/m2
07:13 3.4 °C 2.2 °C 1001.4 hPa Calm   1.6 km/h 92% 0.0 mm 0 W/m2
07:18 3.4 °C 2.2 °C 1001.4 hPa Calm   6.4 km/h 92% 0.0 mm 0 W/m2
07:23 3.4 °C 2.2 °C 1001.4 hPa SSE 1.4 km/h 4.8 km/h 92% 0.0 mm 0 W/m2
07:28 3.4 °C 2.2 °C 1001.4 hPa Calm   6.4 km/h 92% 0.0 mm 0 W/m2
07:33 3.4 °C 2.2 °C 1001.4 hPa NW 3.2 km/h 4.8 km/h 92% 0.0 mm 0 W/m2
07:38 3.4 °C 2.2 °C 1001.4 hPa SW 1.4 km/h 11.3 km/h 92% 0.0 mm 0 W/m2
07:43 3.4 °C 2.2 °C 1001.4 hPa WSW 3.2 km/h 3.2 km/h 92% 0.0 mm 0 W/m2
07:48 3.4 °C 2.2 °C 1001.4 hPa West 3.2 km/h 11.3 km/h 92% 0.0 mm 0 W/m2
07:53 3.5 °C 2.3 °C 1001.4 hPa NW 1.4 km/h 3.2 km/h 92% 0.0 mm 0 W/m2
07:58 3.5 °C 2.3 °C 1001.4 hPa Calm   3.2 km/h 92% 0.0 mm 0 W/m2
08:03 3.5 °C 2.3 °C 1001.4 hPa Calm   6.4 km/h 92% 0.0 mm 0 W/m2
08:08 3.5 °C 2.2 °C 1001.4 hPa Calm   1.6 km/h 91% 0.0 mm 0 W/m2
08:13 3.4 °C 2.1 °C 1001.4 hPa Calm   3.2 km/h 91% 0.0 mm 0 W/m2
08:18 3.4 °C 2.2 °C 1001.4 hPa NNW 4.7 km/h 4.8 km/h 92% 0.0 mm 0 W/m2
08:23 3.4 °C 2.2 °C 1001.4 hPa Calm   3.2 km/h 92% 0.0 mm 5 W/m2
08:28 3.4 °C 2.1 °C 1001.4 hPa Calm   1.6 km/h 91% 0.0 mm 5 W/m2
08:33 3.5 °C 2.3 °C 1001.4 hPa Calm   3.2 km/h 92% 0.0 mm 5 W/m2
08:38 3.4 °C 2.1 °C 1001.7 hPa East 1.4 km/h 1.6 km/h 91% 0.0 mm 7 W/m2
08:43 3.5 °C 2.2 °C 1001.7 hPa NE 1.4 km/h 6.4 km/h 91% 0.0 mm 7 W/m2
08:48 3.5 °C 2.2 °C 1001.7 hPa ESE 3.2 km/h 6.4 km/h 91% 0.0 mm 5 W/m2
08:53 3.6 °C 2.3 °C 1001.7 hPa Calm     91% 0.0 mm 5 W/m2
08:58 3.6 °C 2.3 °C 1001.7 hPa ESE 1.4 km/h 6.4 km/h 91% 0.0 mm 7 W/m2
09:03 3.5 °C 2.3 °C 1002.0 hPa SE 1.4 km/h 3.2 km/h 92% 0.0 mm 7 W/m2
09:08 3.5 °C 2.3 °C 1002.0 hPa Calm   4.8 km/h 92% 0.0 mm 9 W/m2
09:13 3.5 °C 2.3 °C 1001.7 hPa Calm     92% 0.0 mm 11 W/m2
09:18 3.5 °C 2.3 °C 1001.7 hPa WNW 1.4 km/h 4.8 km/h 92% 0.0 mm 11 W/m2
09:23 3.5 °C 2.3 °C 1001.7 hPa NE 3.2 km/h 3.2 km/h 92% 0.0 mm 12 W/m2
09:28 3.5 °C 2.3 °C 1001.7 hPa NE 1.4 km/h 1.6 km/h 92% 0.0 mm 14 W/m2
09:34 3.5 °C 2.3 °C 1001.7 hPa Calm     92% 0.0 mm 16 W/m2
09:39 3.6 °C 2.4 °C 1001.7 hPa Calm     92% 0.0 mm 16 W/m2
09:44 3.6 °C 2.4 °C 1001.7 hPa Calm   3.2 km/h 92% 0.0 mm 21 W/m2
09:49 3.6 °C 2.6 °C 1001.7 hPa Calm   1.6 km/h 93% 0.0 mm 25 W/m2
09:54 3.6 °C 2.4 °C 1001.7 hPa ESE 1.4 km/h 6.4 km/h 92% 0.0 mm 33 W/m2
09:59 3.7 °C 2.7 °C 1001.7 hPa ENE 1.4 km/h 1.6 km/h 93% 0.0 mm 54 W/m2
10:04 3.7 °C 2.7 °C 1001.7 hPa NNE 3.2 km/h 6.4 km/h 93% 0.0 mm 47 W/m2
10:09 3.7 °C 2.7 °C 1001.7 hPa East 1.4 km/h 4.8 km/h 93% 0.2 mm 105 W/m2
10:14 3.7 °C 2.7 °C 1002.0 hPa East 3.2 km/h 6.4 km/h 93% 0.2 mm 84 W/m2
10:19 3.8 °C 2.8 °C 1002.0 hPa ENE 4.7 km/h 6.4 km/h 93% 0.2 mm 77 W/m2
10:24 3.8 °C 2.8 °C 1002.0 hPa NE 4.7 km/h 4.8 km/h 93% 0.2 mm 114 W/m2
10:29 3.9 °C 2.9 °C 1002.0 hPa ENE 3.2 km/h 4.8 km/h 93% 0.2 mm 97 W/m2
10:34 3.9 °C 2.9 °C 1002.0 hPa NE 3.2 km/h 3.2 km/h 93% 0.2 mm 86 W/m2
10:39 4 °C 3 °C 1002.0 hPa WSW 1.4 km/h 6.4 km/h 93% 0.2 mm 109 W/m2
10:44 4.1 °C 3.1 °C 1002.0 hPa WSW 1.4 km/h 3.2 km/h 93% 0.2 mm 40 W/m2
10:49 4.1 °C 2.9 °C 1001.7 hPa NW 6.4 km/h 6.4 km/h 92% 0.2 mm 47 W/m2
10:54 4.1 °C 2.9 °C 1002.0 hPa NE 4.7 km/h 6.4 km/h 92% 0.2 mm 42 W/m2
10:59 4.1 °C 2.9 °C 1002.0 hPa Calm     92% 0.2 mm 54 W/m2
11:04 4.1 °C 2.9 °C 1002.0 hPa NE 1.4 km/h 4.8 km/h 92% 0.2 mm 40 W/m2
11:09 4.1 °C 2.9 °C 1002.0 hPa NE 1.4 km/h 3.2 km/h 92% 0.0 mm 46 W/m2
11:14 4.1 °C 2.8 °C 1002.0 hPa NE 1.4 km/h 4.8 km/h 91% 0.0 mm 79 W/m2
11:19 4.2 °C 2.9 °C 1002.0 hPa Calm   4.8 km/h 91% 0.0 mm 83 W/m2
11:24 4.3 °C 2.8 °C 1002.0 hPa East 1.4 km/h 8 km/h 90% 0.0 mm 65 W/m2
11:29 4.4 °C 2.9 °C 1002.0 hPa NE 3.2 km/h 4.8 km/h 90% 0.0 mm 51 W/m2
11:34 4.5 °C 2.8 °C 1001.7 hPa NNW 3.2 km/h 11.3 km/h 89% 0.0 mm 60 W/m2
11:39 4.6 °C 2.8 °C 1001.7 hPa ENE 3.2 km/h 11.3 km/h 88% 0.0 mm 105 W/m2
11:44 4.6 °C 2.6 °C 1002.0 hPa ENE 9.7 km/h 17.7 km/h 87% 0.0 mm 86 W/m2
11:49 4.7 °C 2.6 °C 1001.7 hPa Calm   4.8 km/h 86% 0.0 mm 151 W/m2
11:54 4.8 °C 2.7 °C 1001.7 hPa NNE 3.2 km/h 17.7 km/h 86% 0.0 mm 113 W/m2
11:59 4.8 °C 2.7 °C 1001.7 hPa Calm   4.8 km/h 86% 0.0 mm 128 W/m2
12:04 4.9 °C 2.8 °C 1001.7 hPa Calm   6.4 km/h 86% 0.0 mm 155 W/m2
12:09 4.9 °C 2.9 °C 1001.7 hPa NE 3.2 km/h 4.8 km/h 87% 0.0 mm 113 W/m2
12:14 5 °C 2.9 °C 1001.7 hPa NE 3.2 km/h 4.8 km/h 86% 0.0 mm 90 W/m2
12:19 5.1 °C 3 °C 1001.7 hPa NW 3.2 km/h 6.4 km/h 86% 0.0 mm 88 W/m2
12:24 5.1 °C 3 °C 1001.7 hPa NNW 1.4 km/h 4.8 km/h 86% 0.0 mm 139 W/m2
12:29 5.1 °C 3 °C 1001.7 hPa NNW 1.4 km/h 1.6 km/h 86% 0.0 mm 127 W/m2
12:34 5.2 °C 3.2 °C 1001.7 hPa NW 4.7 km/h 6.4 km/h 87% 0.0 mm 153 W/m2
12:39 5.1 °C 3 °C 1001.7 hPa Calm   11.3 km/h 86% 0.0 mm 116 W/m2
12:44 5.1 °C 3 °C 1001.7 hPa NW 1.4 km/h 3.2 km/h 86% 0.0 mm 72 W/m2
12:49 5.1 °C 3 °C 1001.7 hPa North 1.4 km/h 11.3 km/h 86% 0.0 mm 49 W/m2
12:54 5.1 °C 3 °C 1001.7 hPa NW 1.4 km/h 11.3 km/h 86% 0.0 mm 69 W/m2
12:59 5 °C 2.9 °C 1001.7 hPa WSW 1.4 km/h 6.4 km/h 86% 0.0 mm 56 W/m2
13:04 5 °C 2.9 °C 1001.7 hPa NNE 1.4 km/h 9.7 km/h 86% 0.0 mm 69 W/m2
13:09 4.9 °C 2.9 °C 1001.7 hPa NW 3.2 km/h 6.4 km/h 87% 0.0 mm 93 W/m2
13:14 4.9 °C 3.1 °C 1001.7 hPa North 3.2 km/h 3.2 km/h 88% 0.0 mm 67 W/m2
13:19 4.8 °C 3 °C 1001.7 hPa WNW 4.7 km/h 11.3 km/h 88% 0.0 mm 56 W/m2
13:24 4.7 °C 2.9 °C 1001.7 hPa NW 3.2 km/h 4.8 km/h 88% 0.0 mm 100 W/m2
13:29 4.7 °C 3 °C 1001.7 hPa NW 1.4 km/h 11.3 km/h 89% 0.0 mm 114 W/m2
13:34 4.7 °C 3.2 °C 1001.7 hPa NNE 4.7 km/h 4.8 km/h 90% 0.0 mm 83 W/m2
13:39 4.7 °C 3.2 °C 1001.7 hPa Calm   4.8 km/h 90% 0.0 mm 84 W/m2
13:44 4.7 °C 3.2 °C 1001.7 hPa Calm   9.7 km/h 90% 0.0 mm 53 W/m2
13:49 4.6 °C 3.1 °C 1001.7 hPa Calm   3.2 km/h 90% 0.2 mm 79 W/m2
13:54 4.5 °C 3 °C 1001.7 hPa NNW 1.4 km/h 3.2 km/h 90% 0.2 mm 56 W/m2
13:59 4.5 °C 3 °C 1001.7 hPa North 3.2 km/h 3.2 km/h 90% 0.2 mm 44 W/m2
14:04 4.4 °C 2.9 °C 1002.0 hPa NE 3.2 km/h 4.8 km/h 90% 0.2 mm 53 W/m2
14:09 4.4 °C 2.9 °C 1002.0 hPa SSE 6.4 km/h 6.4 km/h 90% 0.2 mm 54 W/m2
14:14 4.3 °C 2.8 °C 1002.0 hPa ENE 3.2 km/h 4.8 km/h 90% 0.5 mm 53 W/m2
14:19 4.2 °C 2.7 °C 1002.0 hPa WNW 6.4 km/h 6.4 km/h 90% 0.5 mm 53 W/m2
14:24 4.1 °C 2.8 °C 1002.0 hPa Calm   3.2 km/h 91% 0.5 mm 54 W/m2
14:29 4.1 °C 2.8 °C 1002.0 hPa Calm     91% 0.5 mm 46 W/m2
14:34 4.1 °C 2.8 °C 1002.0 hPa Calm     91% 0.5 mm 42 W/m2
14:39 4.1 °C 2.8 °C 1002.0 hPa Calm   1.6 km/h 91% 0.5 mm 32 W/m2
14:44 4.1 °C 2.9 °C 1002.0 hPa WNW 4.7 km/h 4.8 km/h 92% 0.5 mm 46 W/m2
14:49 4 °C 2.8 °C 1002.0 hPa WNW 1.4 km/h 4.8 km/h 92% 0.5 mm 35 W/m2
14:54 3.9 °C 2.7 °C 1002.0 hPa Calm     92% 0.5 mm 32 W/m2
14:59 3.9 °C 2.7 °C 1002.0 hPa ENE 3.2 km/h 4.8 km/h 92% 0.5 mm 28 W/m2
15:04 3.9 °C 2.7 °C 1002.4 hPa WNW 3.2 km/h 8 km/h 92% 0.5 mm 28 W/m2
15:09 3.8 °C 2.6 °C 1002.4 hPa NW 3.2 km/h 3.2 km/h 92% 0.8 mm 32 W/m2
15:14 3.8 °C 2.6 °C 1002.4 hPa SW 1.4 km/h 6.4 km/h 92% 0.5 mm 35 W/m2
15:19 3.7 °C 2.5 °C 1002.4 hPa Calm   4.8 km/h 92% 0.5 mm 35 W/m2
15:24 3.7 °C 2.5 °C 1002.4 hPa Calm   4.8 km/h 92% 0.5 mm 40 W/m2
15:29 3.6 °C 2.4 °C 1002.7 hPa Calm   3.2 km/h 92% 0.8 mm 42 W/m2
15:34 3.6 °C 2.4 °C 1002.7 hPa Calm   4.8 km/h 92% 0.5 mm 33 W/m2
15:39 3.6 °C 2.4 °C 1002.7 hPa Calm     92% 0.5 mm 26 W/m2
15:44 3.6 °C 2.6 °C 1003.0 hPa Calm   4.8 km/h 93% 0.5 mm 25 W/m2
15:49 3.6 °C 2.6 °C 1003.0 hPa WNW 1.4 km/h 3.2 km/h 93% 0.5 mm 21 W/m2
15:54 3.5 °C 2.5 °C 1003.0 hPa Calm   3.2 km/h 93% 0.5 mm 18 W/m2
15:59 3.4 °C 2.4 °C 1003.0 hPa Calm   6.4 km/h 93% 0.5 mm 14 W/m2
16:04 3.4 °C 2.4 °C 1003.0 hPa Calm   1.6 km/h 93% 0.5 mm 12 W/m2
16:09 3.4 °C 2.4 °C 1003.0 hPa West 1.4 km/h 6.4 km/h 93% 0.5 mm 19 W/m2
16:14 3.3 °C 2.3 °C 1003.4 hPa West 1.4 km/h 1.6 km/h 93% 0.5 mm 21 W/m2
16:19 3.3 °C 2.3 °C 1003.4 hPa WNW 1.4 km/h 4.8 km/h 93% 0.5 mm 14 W/m2
16:24 3.3 °C 2.3 °C 1003.4 hPa Calm     93% 0.5 mm 9 W/m2
16:29 3.3 °C 2.3 °C 1003.4 hPa Calm     93% 0.2 mm 5 W/m2
16:34 3.2 °C 2.2 °C 1003.4 hPa Calm   1.6 km/h 93% 0.2 mm 0 W/m2
16:39 3.2 °C 2.2 °C 1003.4 hPa Calm     93% 0.2 mm 0 W/m2
16:44 3.1 °C 2.1 °C 1003.7 hPa Calm     93% 0.2 mm 0 W/m2
16:49 3 °C 2 °C 1003.7 hPa Calm   1.6 km/h 93% 0.2 mm 0 W/m2
16:54 2.9 °C 1.9 °C 1003.7 hPa Calm     93% 0.0 mm 0 W/m2
16:59 2.9 °C 2 °C 1004.1 hPa Calm   1.6 km/h 94% 0.0 mm 0 W/m2
17:04 2.9 °C 2 °C 1004.1 hPa Calm     94% 0.0 mm 0 W/m2
17:09 2.9 °C 2 °C 1004.1 hPa Calm     94% 0.0 mm 0 W/m2
17:14 2.9 °C 2 °C 1004.1 hPa Calm     94% 0.0 mm 0 W/m2
17:19 2.9 °C 2 °C 1004.1 hPa Calm     94% 0.0 mm 0 W/m2
17:24 2.9 °C 2 °C 1004.1 hPa Calm     94% 0.0 mm 0 W/m2
17:29 2.8 °C 1.9 °C 1004.4 hPa Calm     94% 0.0 mm 0 W/m2
17:34 2.8 °C 2.1 °C 1004.4 hPa Calm     95% 0.0 mm 0 W/m2
17:39 2.8 °C 1.9 °C 1004.4 hPa Calm     94% 0.0 mm 0 W/m2
17:45 2.8 °C 2.1 °C 1004.4 hPa Calm     95% 0.0 mm 0 W/m2
17:50 2.8 °C 2.1 °C 1004.4 hPa Calm     95% 0.0 mm 0 W/m2
17:55 2.8 °C 2.1 °C 1004.4 hPa Calm     95% 0.0 mm 0 W/m2
18:00 2.8 °C 2.1 °C 1004.4 hPa Calm     95% 0.0 mm 0 W/m2
18:05 2.8 °C 2.1 °C 1004.7 hPa Calm     95% 0.0 mm 0 W/m2
18:10 2.8 °C 2.1 °C 1004.7 hPa Calm     95% 0.0 mm 0 W/m2
18:15 2.7 °C 2 °C 1004.7 hPa Calm     95% 0.0 mm 0 W/m2
18:20 2.6 °C 1.9 °C 1004.7 hPa Calm     95% 0.0 mm 0 W/m2
18:25 2.5 °C 1.8 °C 1004.7 hPa Calm     95% 0.0 mm 0 W/m2
18:30 2.4 °C 1.7 °C 1004.7 hPa Calm     95% 0.0 mm 0 W/m2
18:35 2.3 °C 1.6 °C 1004.7 hPa Calm     95% 0.0 mm 0 W/m2
18:40 2.3 °C 1.6 °C 1005.1 hPa Calm     95% 0.0 mm 0 W/m2
18:45 2.3 °C 1.6 °C 1005.1 hPa Calm     95% 0.0 mm 0 W/m2
18:50 2.3 °C 1.6 °C 1005.1 hPa Calm     95% 0.0 mm 0 W/m2
18:55 2.3 °C 1.6 °C 1005.1 hPa Calm     95% 0.0 mm 0 W/m2
19:00 2.3 °C 1.6 °C 1005.1 hPa NNW 1.4 km/h 1.6 km/h 95% 0.0 mm 0 W/m2
19:05 2.4 °C 1.7 °C 1005.4 hPa Calm     95% 0.0 mm 0 W/m2
19:10 2.4 °C 1.8 °C 1005.4 hPa Calm     96% 0.0 mm 0 W/m2
19:15 2.5 °C 1.9 °C 1005.4 hPa Calm     96% 0.0 mm 0 W/m2
19:20 2.5 °C 1.9 °C 1005.4 hPa Calm     96% 0.0 mm 0 W/m2
19:25 2.6 °C 2 °C 1005.8 hPa Calm     96% 0.0 mm 0 W/m2
19:30 2.5 °C 1.9 °C 1005.8 hPa Calm   3.2 km/h 96% 0.0 mm 0 W/m2
19:35 2.4 °C 1.7 °C 1005.8 hPa Calm     95% 0.0 mm 0 W/m2
19:40 2.4 °C 1.7 °C 1005.8 hPa Calm   3.2 km/h 95% 0.0 mm 0 W/m2
19:45 2.3 °C 1.6 °C 1005.8 hPa Calm     95% 0.0 mm 0 W/m2
19:50 2.3 °C 1.6 °C 1005.8 hPa Calm     95% 0.0 mm 0 W/m2
19:55 2.3 °C 1.6 °C 1005.8 hPa Calm     95% 0.0 mm 0 W/m2
20:00 2.2 °C 1.6 °C 1006.1 hPa Calm     96% 0.0 mm 0 W/m2
20:05 2.2 °C 1.6 °C 1006.1 hPa Calm     96% 0.0 mm 0 W/m2
20:10 2.2 °C 1.5 °C 1006.1 hPa Calm     95% 0.0 mm 0 W/m2
20:15 2.2 °C 1.5 °C 1006.1 hPa Calm     95% 0.0 mm 0 W/m2
20:20 2.1 °C 1.4 °C 1006.1 hPa Calm     95% 0.0 mm 0 W/m2
20:25 2.1 °C 1.5 °C 1006.1 hPa Calm     96% 0.0 mm 0 W/m2
20:30 2 °C 1.4 °C 1006.4 hPa Calm     96% 0.0 mm 0 W/m2
20:35 1.9 °C 1.3 °C 1006.4 hPa Calm     96% 0.0 mm 0 W/m2
20:40 1.8 °C 1.1 °C 1006.4 hPa Calm     95% 0.0 mm 0 W/m2
20:45 1.7 °C 1 °C 1006.4 hPa Calm     95% 0.0 mm 0 W/m2
20:50 1.7 °C 1.1 °C 1006.4 hPa Calm     96% 0.0 mm 0 W/m2
20:55 1.6 °C 1 °C 1006.4 hPa Calm     96% 0.0 mm 0 W/m2
21:00 1.6 °C 1 °C 1006.8 hPa Calm     96% 0.0 mm 0 W/m2
21:05 1.6 °C 1 °C 1006.8 hPa Calm     96% 0.0 mm 0 W/m2
21:10 1.6 °C 1 °C 1006.8 hPa Calm     96% 0.0 mm 0 W/m2
21:15 1.6 °C 1 °C 1006.8 hPa Calm     96% 0.0 mm 0 W/m2
21:20 1.6 °C 1 °C 1006.8 hPa Calm     96% 0.0 mm 0 W/m2
21:25 1.5 °C 0.9 °C 1006.8 hPa Calm     96% 0.0 mm 0 W/m2
21:30 1.4 °C 0.8 °C 1007.1 hPa Calm     96% 0.0 mm 0 W/m2
21:35 1.3 °C 0.7 °C 1007.1 hPa Calm     96% 0.0 mm 0 W/m2
21:40 1.3 °C 0.7 °C 1007.1 hPa Calm     96% 0.0 mm 0 W/m2
21:45 1.3 °C 0.7 °C 1007.5 hPa Calm     96% 0.0 mm 0 W/m2
21:50 1.3 °C 0.7 °C 1007.5 hPa Calm     96% 0.0 mm 0 W/m2
21:56 1.3 °C 0.7 °C 1007.5 hPa Calm     96% 0.0 mm 0 W/m2
22:01 1.3 °C 0.7 °C 1007.5 hPa Calm     96% 0.0 mm 0 W/m2
22:06 1.4 °C 0.8 °C 1007.5 hPa Calm     96% 0.0 mm 0 W/m2
22:11 1.4 °C 0.8 °C 1007.5 hPa Calm     96% 0.0 mm 0 W/m2
22:16 1.4 °C 0.8 °C 1007.8 hPa Calm     96% 0.0 mm 0 W/m2
22:21 1.4 °C 0.8 °C 1007.8 hPa Calm   1.6 km/h 96% 0.0 mm 0 W/m2
22:26 1.4 °C 0.8 °C 1007.8 hPa Calm     96% 0.0 mm 0 W/m2
22:31 1.4 °C 0.8 °C 1007.8 hPa Calm     96% 0.0 mm 0 W/m2
22:36 1.4 °C 0.8 °C 1007.8 hPa Calm     96% 0.0 mm 0 W/m2
22:41 1.4 °C 0.8 °C 1007.8 hPa Calm     96% 0.0 mm 0 W/m2
22:46 1.4 °C 0.8 °C 1007.8 hPa Calm   1.6 km/h 96% 0.0 mm 0 W/m2
22:51 1.4 °C 0.8 °C 1007.8 hPa Calm     96% 0.0 mm 0 W/m2
22:56 1.4 °C 0.8 °C 1008.1 hPa Calm   3.2 km/h 96% 0.0 mm 0 W/m2
23:01 1.3 °C 0.7 °C 1008.1 hPa Calm   1.6 km/h 96% 0.0 mm 0 W/m2
23:06 1.3 °C 0.7 °C 1008.1 hPa Calm     96% 0.0 mm 0 W/m2
23:11 1.3 °C 0.7 °C 1008.1 hPa Calm     96% 0.0 mm 0 W/m2
23:16 1.2 °C 0.6 °C 1008.5 hPa Calm     96% 0.0 mm 0 W/m2
23:21 1.2 °C 0.6 °C 1008.5 hPa Calm     96% 0.0 mm 0 W/m2
23:26 1.2 °C 0.6 °C 1008.5 hPa Calm     96% 0.0 mm 0 W/m2
23:31 1.3 °C 0.7 °C 1008.5 hPa Calm     96% 0.0 mm 0 W/m2
23:36 1.3 °C 0.7 °C 1008.5 hPa NW 1.4 km/h 3.2 km/h 96% 0.0 mm 0 W/m2
23:41 1.3 °C 0.7 °C 1008.8 hPa Calm     96% 0.0 mm 0 W/m2
23:46 1.3 °C 0.7 °C 1008.8 hPa Calm   3.2 km/h 96% 0.0 mm 0 W/m2
23:51 1.4 °C 0.8 °C 1008.8 hPa Calm     96% 0.0 mm 0 W/m2
23:56 1.4 °C 0.8 °C 1008.8 hPa Calm     96% 0.0 mm 0 W/m2
Juneau County Weather
Compliments of Weather Underground - 4 mb